Mount Uniacke, Canada
Current Conditions -  °F | °C
As of 12:00 PM on Sunday 25 Jan 2015 (Local Time) from CYHZ Reporting Station
Overcast Overcast  
Wind Chill: -5°   Ceiling: 1900
Heat Index:   Visibility: 15mi
Dew Point: -2°   Wind: 17mph
Humidity: 81%   Direction: 250°WSW
Pressure: 29.27"   Gusts: 25mph
Location:  44.88°N, 63.83°W
Report Text: CYHZ 251600Z 25015G22KT 15SM OVC019 01/M02 A2927 RMK SC8 SLP916
Loading
Personal Weather Stations






























Interactive Weather Map New forecast layout! Learn more

10-Day Weather Forecast

Advertisements
Track Severe Weather on mobile